sensor_id;sensor_type;location;lat;lon;timestamp;P1;durP1;ratioP1;P2;durP2;ratioP2
23718;SDS011;43322;52.230;5.702;2023-09-19T00:01:32;10.50;;;3.03;;
23718;SDS011;43322;52.230;5.702;2023-09-19T00:04:00;5.80;;;2.55;;
23718;SDS011;43322;52.230;5.702;2023-09-19T00:06:28;7.45;;;3.00;;
23718;SDS011;43322;52.230;5.702;2023-09-19T00:08:56;11.38;;;3.17;;
23718;SDS011;43322;52.230;5.702;2023-09-19T00:11:24;11.88;;;3.05;;
23718;SDS011;43322;52.230;5.702;2023-09-19T00:13:52;8.93;;;3.30;;
23718;SDS011;43322;52.230;5.702;2023-09-19T00:16:18;12.93;;;3.30;;
23718;SDS011;43322;52.230;5.702;2023-09-19T00:18:45;9.57;;;3.13;;
23718;SDS011;43322;52.230;5.702;2023-09-19T00:21:15;8.60;;;2.90;;
23718;SDS011;43322;52.230;5.702;2023-09-19T00:23:41;5.70;;;2.97;;
23718;SDS011;43322;52.230;5.702;2023-09-19T00:26:08;8.05;;;3.33;;
23718;SDS011;43322;52.230;5.702;2023-09-19T00:28:35;12.00;;;3.17;;
23718;SDS011;43322;52.230;5.702;2023-09-19T00:31:02;12.52;;;3.30;;
23718;SDS011;43322;52.230;5.702;2023-09-19T00:33:30;7.75;;;2.80;;
23718;SDS011;43322;52.230;5.702;2023-09-19T00:35:56;7.47;;;3.20;;
23718;SDS011;43322;52.230;5.702;2023-09-19T00:38:24;6.55;;;2.60;;
23718;SDS011;43322;52.230;5.702;2023-09-19T00:40:53;6.20;;;2.65;;
23718;SDS011;43322;52.230;5.702;2023-09-19T00:43:21;3.60;;;2.53;;
23718;SDS011;43322;52.230;5.702;2023-09-19T00:45:49;12.98;;;3.72;;
23718;SDS011;43322;52.230;5.702;2023-09-19T00:48:18;10.02;;;2.95;;
23718;SDS011;43322;52.230;5.702;2023-09-19T00:50:45;7.93;;;2.80;;
23718;SDS011;43322;52.230;5.702;2023-09-19T00:53:15;8.00;;;2.97;;
23718;SDS011;43322;52.230;5.702;2023-09-19T00:55:45;10.70;;;2.97;;
23718;SDS011;43322;52.230;5.702;2023-09-19T00:58:13;9.10;;;2.70;;
23718;SDS011;43322;52.230;5.702;2023-09-19T01:00:40;10.75;;;3.00;;
23718;SDS011;43322;52.230;5.702;2023-09-19T01:03:09;7.35;;;2.70;;
23718;SDS011;43322;52.230;5.702;2023-09-19T01:05:38;7.65;;;2.95;;
23718;SDS011;43322;52.230;5.702;2023-09-19T01:08:05;10.02;;;2.63;;
23718;SDS011;43322;52.230;5.702;2023-09-19T01:10:32;5.88;;;2.67;;
23718;SDS011;43322;52.230;5.702;2023-09-19T01:13:03;5.82;;;2.45;;
23718;SDS011;43322;52.230;5.702;2023-09-19T01:15:38;12.10;;;3.10;;
23718;SDS011;43322;52.230;5.702;2023-09-19T01:18:16;4.25;;;2.22;;
23718;SDS011;43322;52.230;5.702;2023-09-19T01:20:51;6.13;;;2.63;;
23718;SDS011;43322;52.230;5.702;2023-09-19T01:23:23;9.18;;;3.63;;
23718;SDS011;43322;52.230;5.702;2023-09-19T01:26:05;8.65;;;2.40;;
23718;SDS011;43322;52.230;5.702;2023-09-19T01:28:39;6.57;;;2.40;;
23718;SDS011;43322;52.230;5.702;2023-09-19T01:31:13;5.30;;;2.85;;
23718;SDS011;43322;52.230;5.702;2023-09-19T01:33:53;5.38;;;2.53;;
23718;SDS011;43322;52.230;5.702;2023-09-19T01:36:25;9.73;;;2.80;;
23718;SDS011;43322;52.230;5.702;2023-09-19T01:38:54;4.63;;;2.50;;
23718;SDS011;43322;52.230;5.702;2023-09-19T01:41:22;4.35;;;2.65;;
23718;SDS011;43322;52.230;5.702;2023-09-19T01:43:58;6.75;;;2.90;;
23718;SDS011;43322;52.230;5.702;2023-09-19T01:46:32;8.70;;;3.05;;
23718;SDS011;43322;52.230;5.702;2023-09-19T01:49:04;5.40;;;3.25;;
23718;SDS011;43322;52.230;5.702;2023-09-19T01:51:46;12.48;;;3.47;;
23718;SDS011;43322;52.230;5.702;2023-09-19T01:54:20;9.75;;;3.53;;
23718;SDS011;43322;52.230;5.702;2023-09-19T01:56:55;13.77;;;3.50;;
23718;SDS011;43322;52.230;5.702;2023-09-19T01:59:28;5.80;;;3.03;;
23718;SDS011;43322;52.230;5.702;2023-09-19T02:02:03;5.75;;;3.15;;
23718;SDS011;43322;52.230;5.702;2023-09-19T02:04:32;8.23;;;3.47;;
23718;SDS011;43322;52.230;5.702;2023-09-19T02:06:59;6.95;;;3.63;;
23718;SDS011;43322;52.230;5.702;2023-09-19T02:09:26;10.60;;;3.97;;
23718;SDS011;43322;52.230;5.702;2023-09-19T02:11:53;9.45;;;3.85;;
23718;SDS011;43322;52.230;5.702;2023-09-19T02:14:20;12.70;;;4.00;;
23718;SDS011;43322;52.230;5.702;2023-09-19T02:16:47;6.40;;;4.20;;
23718;SDS011;43322;52.230;5.702;2023-09-19T02:19:16;12.00;;;4.00;;
23718;SDS011;43322;52.230;5.702;2023-09-19T02:21:42;9.60;;;4.43;;
23718;SDS011;43322;52.230;5.702;2023-09-19T02:24:09;7.85;;;3.83;;
23718;SDS011;43322;52.230;5.702;2023-09-19T02:26:37;12.38;;;4.10;;
23718;SDS011;43322;52.230;5.702;2023-09-19T02:29:04;10.32;;;4.38;;
23718;SDS011;43322;52.230;5.702;2023-09-19T02:31:30;10.48;;;3.70;;
23718;SDS011;43322;52.230;5.702;2023-09-19T02:33:57;9.50;;;4.28;;
23718;SDS011;43322;52.230;5.702;2023-09-19T02:36:26;12.65;;;4.22;;
23718;SDS011;43322;52.230;5.702;2023-09-19T02:38:53;9.35;;;3.70;;
23718;SDS011;43322;52.230;5.702;2023-09-19T02:41:19;15.52;;;4.38;;
23718;SDS011;43322;52.230;5.702;2023-09-19T02:43:46;10.75;;;4.38;;
23718;SDS011;43322;52.230;5.702;2023-09-19T02:46:13;18.20;;;4.05;;
23718;SDS011;43322;52.230;5.702;2023-09-19T02:48:42;9.75;;;3.45;;
23718;SDS011;43322;52.230;5.702;2023-09-19T02:51:08;13.85;;;3.88;;
23718;SDS011;43322;52.230;5.702;2023-09-19T02:53:37;11.82;;;3.42;;
23718;SDS011;43322;52.230;5.702;2023-09-19T02:56:03;6.70;;;2.88;;
23718;SDS011;43322;52.230;5.702;2023-09-19T02:58:30;17.77;;;3.00;;
23718;SDS011;43322;52.230;5.702;2023-09-19T03:01:07;16.65;;;4.05;;
23718;SDS011;43322;52.230;5.702;2023-09-19T03:03:34;11.93;;;3.35;;
23718;SDS011;43322;52.230;5.702;2023-09-19T03:06:02;11.57;;;3.10;;
23718;SDS011;43322;52.230;5.702;2023-09-19T03:08:29;13.70;;;3.35;;
23718;SDS011;43322;52.230;5.702;2023-09-19T03:10:57;16.65;;;3.05;;
23718;SDS011;43322;52.230;5.702;2023-09-19T03:13:25;14.63;;;3.08;;
23718;SDS011;43322;52.230;5.702;2023-09-19T03:15:54;11.93;;;2.97;;
23718;SDS011;43322;52.230;5.702;2023-09-19T03:18:21;14.95;;;3.10;;
23718;SDS011;43322;52.230;5.702;2023-09-19T03:20:52;10.55;;;2.70;;
23718;SDS011;43322;52.230;5.702;2023-09-19T03:23:20;12.13;;;3.17;;
23718;SDS011;43322;52.230;5.702;2023-09-19T03:25:46;12.50;;;3.17;;
23718;SDS011;43322;52.230;5.702;2023-09-19T03:28:15;15.43;;;3.22;;
23718;SDS011;43322;52.230;5.702;2023-09-19T03:30:41;19.67;;;3.42;;
23718;SDS011;43322;52.230;5.702;2023-09-19T03:33:08;13.02;;;2.60;;
23718;SDS011;43322;52.230;5.702;2023-09-19T03:35:37;15.05;;;3.47;;
23718;SDS011;43322;52.230;5.702;2023-09-19T03:38:04;16.90;;;3.13;;
23718;SDS011;43322;52.230;5.702;2023-09-19T03:40:31;11.60;;;3.55;;
23718;SDS011;43322;52.230;5.702;2023-09-19T03:43:00;15.32;;;3.20;;
23718;SDS011;43322;52.230;5.702;2023-09-19T03:45:28;12.88;;;2.58;;
23718;SDS011;43322;52.230;5.702;2023-09-19T03:47:54;16.95;;;3.08;;
23718;SDS011;43322;52.230;5.702;2023-09-19T03:50:21;10.75;;;2.70;;
23718;SDS011;43322;52.230;5.702;2023-09-19T03:52:48;15.30;;;3.35;;
23718;SDS011;43322;52.230;5.702;2023-09-19T03:55:15;14.13;;;3.25;;
23718;SDS011;43322;52.230;5.702;2023-09-19T03:57:42;13.32;;;3.13;;
23718;SDS011;43322;52.230;5.702;2023-09-19T04:00:14;12.30;;;2.70;;
23718;SDS011;43322;52.230;5.702;2023-09-19T04:02:47;11.43;;;3.00;;
23718;SDS011;43322;52.230;5.702;2023-09-19T04:05:14;10.77;;;3.25;;
23718;SDS011;43322;52.230;5.702;2023-09-19T04:07:41;12.38;;;2.75;;
23718;SDS011;43322;52.230;5.702;2023-09-19T04:10:08;12.30;;;2.85;;
23718;SDS011;43322;52.230;5.702;2023-09-19T04:12:36;14.50;;;3.20;;
23718;SDS011;43322;52.230;5.702;2023-09-19T04:15:03;10.43;;;2.75;;
23718;SDS011;43322;52.230;5.702;2023-09-19T04:17:31;8.25;;;2.90;;
23718;SDS011;43322;52.230;5.702;2023-09-19T04:19:59;9.60;;;2.83;;
23718;SDS011;43322;52.230;5.702;2023-09-19T04:22:26;12.80;;;3.58;;
23718;SDS011;43322;52.230;5.702;2023-09-19T04:24:53;9.10;;;2.63;;
23718;SDS011;43322;52.230;5.702;2023-09-19T04:27:19;16.10;;;3.17;;
23718;SDS011;43322;52.230;5.702;2023-09-19T04:29:46;10.88;;;2.72;;
23718;SDS011;43322;52.230;5.702;2023-09-19T04:32:18;11.73;;;3.10;;
23718;SDS011;43322;52.230;5.702;2023-09-19T04:34:44;7.85;;;2.60;;
23718;SDS011;43322;52.230;5.702;2023-09-19T04:37:16;10.80;;;2.70;;
23718;SDS011;43322;52.230;5.702;2023-09-19T04:39:43;15.10;;;2.88;;
23718;SDS011;43322;52.230;5.702;2023-09-19T04:42:10;14.73;;;3.47;;
23718;SDS011;43322;52.230;5.702;2023-09-19T04:44:39;9.15;;;2.75;;
23718;SDS011;43322;52.230;5.702;2023-09-19T04:47:07;14.77;;;3.30;;
23718;SDS011;43322;52.230;5.702;2023-09-19T04:49:34;14.40;;;2.70;;
23718;SDS011;43322;52.230;5.702;2023-09-19T04:52:01;11.48;;;2.50;;
23718;SDS011;43322;52.230;5.702;2023-09-19T04:54:29;8.85;;;2.85;;
23718;SDS011;43322;52.230;5.702;2023-09-19T04:56:55;12.75;;;3.20;;
23718;SDS011;43322;52.230;5.702;2023-09-19T04:59:22;6.50;;;3.10;;
23718;SDS011;43322;52.230;5.702;2023-09-19T05:01:49;19.13;;;4.03;;
23718;SDS011;43322;52.230;5.702;2023-09-19T05:04:16;11.60;;;3.13;;
23718;SDS011;43322;52.230;5.702;2023-09-19T05:06:42;9.18;;;2.70;;
23718;SDS011;43322;52.230;5.702;2023-09-19T05:09:09;7.95;;;2.70;;
23718;SDS011;43322;52.230;5.702;2023-09-19T05:11:37;10.63;;;2.95;;
23718;SDS011;43322;52.230;5.702;2023-09-19T05:14:04;9.52;;;2.80;;
23718;SDS011;43322;52.230;5.702;2023-09-19T05:16:32;8.73;;;2.70;;
23718;SDS011;43322;52.230;5.702;2023-09-19T05:18:59;15.90;;;3.58;;
23718;SDS011;43322;52.230;5.702;2023-09-19T05:21:26;11.40;;;2.80;;
23718;SDS011;43322;52.230;5.702;2023-09-19T05:23:55;8.45;;;2.83;;
23718;SDS011;43322;52.230;5.702;2023-09-19T05:26:21;13.15;;;3.17;;
23718;SDS011;43322;52.230;5.702;2023-09-19T05:28:49;14.48;;;2.78;;
23718;SDS011;43322;52.230;5.702;2023-09-19T05:31:18;10.98;;;2.97;;
23718;SDS011;43322;52.230;5.702;2023-09-19T05:33:45;7.68;;;2.95;;
23718;SDS011;43322;52.230;5.702;2023-09-19T05:36:12;13.20;;;3.22;;
23718;SDS011;43322;52.230;5.702;2023-09-19T05:38:41;13.13;;;2.92;;
23718;SDS011;43322;52.230;5.702;2023-09-19T05:41:09;19.42;;;3.63;;
23718;SDS011;43322;52.230;5.702;2023-09-19T05:43:38;11.85;;;3.25;;
23718;SDS011;43322;52.230;5.702;2023-09-19T05:46:07;9.95;;;2.80;;
23718;SDS011;43322;52.230;5.702;2023-09-19T05:48:35;13.73;;;3.00;;
23718;SDS011;43322;52.230;5.702;2023-09-19T05:51:04;14.05;;;3.08;;
23718;SDS011;43322;52.230;5.702;2023-09-19T05:53:31;13.43;;;3.40;;
23718;SDS011;43322;52.230;5.702;2023-09-19T05:55:58;9.55;;;2.30;;
23718;SDS011;43322;52.230;5.702;2023-09-19T05:58:26;13.52;;;3.08;;
23718;SDS011;43322;52.230;5.702;2023-09-19T06:00:52;8.65;;;2.55;;
23718;SDS011;43322;52.230;5.702;2023-09-19T06:03:21;11.63;;;3.15;;
23718;SDS011;43322;52.230;5.702;2023-09-19T06:05:51;12.82;;;2.67;;
23718;SDS011;43322;52.230;5.702;2023-09-19T06:08:22;10.77;;;3.42;;
23718;SDS011;43322;52.230;5.702;2023-09-19T06:10:49;11.07;;;3.08;;
23718;SDS011;43322;52.230;5.702;2023-09-19T06:13:17;11.38;;;2.70;;
23718;SDS011;43322;52.230;5.702;2023-09-19T06:15:44;13.93;;;2.83;;
23718;SDS011;43322;52.230;5.702;2023-09-19T06:18:11;10.77;;;3.33;;
23718;SDS011;43322;52.230;5.702;2023-09-19T06:20:45;10.50;;;2.95;;
23718;SDS011;43322;52.230;5.702;2023-09-19T06:23:12;9.63;;;2.65;;
23718;SDS011;43322;52.230;5.702;2023-09-19T06:25:39;13.70;;;3.20;;
23718;SDS011;43322;52.230;5.702;2023-09-19T06:28:08;7.60;;;2.70;;
23718;SDS011;43322;52.230;5.702;2023-09-19T06:30:37;14.52;;;2.88;;
23718;SDS011;43322;52.230;5.702;2023-09-19T06:33:06;10.25;;;2.97;;
23718;SDS011;43322;52.230;5.702;2023-09-19T06:35:33;8.35;;;2.38;;
23718;SDS011;43322;52.230;5.702;2023-09-19T06:38:03;11.38;;;2.85;;
23718;SDS011;43322;52.230;5.702;2023-09-19T06:40:30;10.75;;;2.72;;
23718;SDS011;43322;52.230;5.702;2023-09-19T06:42:57;6.00;;;2.65;;
23718;SDS011;43322;52.230;5.702;2023-09-19T06:45:27;11.35;;;2.75;;
23718;SDS011;43322;52.230;5.702;2023-09-19T06:47:54;10.60;;;2.80;;
23718;SDS011;43322;52.230;5.702;2023-09-19T06:50:22;10.00;;;3.10;;
23718;SDS011;43322;52.230;5.702;2023-09-19T06:52:50;12.23;;;2.83;;
23718;SDS011;43322;52.230;5.702;2023-09-19T06:55:21;8.68;;;2.42;;
23718;SDS011;43322;52.230;5.702;2023-09-19T06:57:50;12.32;;;2.80;;
23718;SDS011;43322;52.230;5.702;2023-09-19T07:00:19;13.15;;;2.80;;
23718;SDS011;43322;52.230;5.702;2023-09-19T07:02:54;13.70;;;2.80;;
23718;SDS011;43322;52.230;5.702;2023-09-19T07:05:22;10.45;;;2.95;;
23718;SDS011;43322;52.230;5.702;2023-09-19T07:07:49;6.43;;;2.60;;
23718;SDS011;43322;52.230;5.702;2023-09-19T07:10:16;13.25;;;2.90;;
23718;SDS011;43322;52.230;5.702;2023-09-19T07:12:44;9.80;;;2.80;;
23718;SDS011;43322;52.230;5.702;2023-09-19T07:15:11;11.27;;;3.63;;
23718;SDS011;43322;52.230;5.702;2023-09-19T07:17:38;13.98;;;3.33;;
23718;SDS011;43322;52.230;5.702;2023-09-19T07:20:05;12.73;;;3.53;;
23718;SDS011;43322;52.230;5.702;2023-09-19T07:22:33;10.63;;;2.55;;
23718;SDS011;43322;52.230;5.702;2023-09-19T07:24:59;15.10;;;3.67;;
23718;SDS011;43322;52.230;5.702;2023-09-19T07:27:26;12.32;;;3.13;;
23718;SDS011;43322;52.230;5.702;2023-09-19T07:29:54;11.07;;;3.00;;
23718;SDS011;43322;52.230;5.702;2023-09-19T07:32:21;14.50;;;3.03;;
23718;SDS011;43322;52.230;5.702;2023-09-19T07:34:48;12.57;;;3.00;;
23718;SDS011;43322;52.230;5.702;2023-09-19T07:37:15;15.52;;;3.45;;
23718;SDS011;43322;52.230;5.702;2023-09-19T07:39:41;14.00;;;2.97;;
23718;SDS011;43322;52.230;5.702;2023-09-19T07:42:09;16.83;;;3.10;;
23718;SDS011;43322;52.230;5.702;2023-09-19T07:44:42;11.75;;;2.92;;
23718;SDS011;43322;52.230;5.702;2023-09-19T07:47:13;17.00;;;4.05;;
23718;SDS011;43322;52.230;5.702;2023-09-19T07:49:39;12.93;;;3.40;;
23718;SDS011;43322;52.230;5.702;2023-09-19T07:52:07;17.05;;;3.30;;
23718;SDS011;43322;52.230;5.702;2023-09-19T07:54:34;16.95;;;3.20;;
23718;SDS011;43322;52.230;5.702;2023-09-19T07:57:01;15.98;;;3.25;;
23718;SDS011;43322;52.230;5.702;2023-09-19T07:59:29;14.43;;;2.88;;
23718;SDS011;43322;52.230;5.702;2023-09-19T08:01:56;17.55;;;3.78;;
23718;SDS011;43322;52.230;5.702;2023-09-19T08:04:24;13.38;;;3.40;;
23718;SDS011;43322;52.230;5.702;2023-09-19T08:06:51;12.80;;;2.83;;
23718;SDS011;43322;52.230;5.702;2023-09-19T08:09:18;12.27;;;2.83;;
23718;SDS011;43322;52.230;5.702;2023-09-19T08:11:46;11.45;;;2.90;;
23718;SDS011;43322;52.230;5.702;2023-09-19T08:14:12;16.20;;;2.80;;
23718;SDS011;43322;52.230;5.702;2023-09-19T08:16:40;10.60;;;2.83;;
23718;SDS011;43322;52.230;5.702;2023-09-19T08:19:07;20.42;;;3.95;;
23718;SDS011;43322;52.230;5.702;2023-09-19T08:21:37;11.45;;;3.50;;
23718;SDS011;43322;52.230;5.702;2023-09-19T08:24:04;12.07;;;3.10;;
23718;SDS011;43322;52.230;5.702;2023-09-19T08:26:31;9.93;;;3.13;;
23718;SDS011;43322;52.230;5.702;2023-09-19T08:28:57;16.13;;;2.88;;
23718;SDS011;43322;52.230;5.702;2023-09-19T08:31:29;13.98;;;3.33;;
23718;SDS011;43322;52.230;5.702;2023-09-19T08:33:56;15.35;;;2.83;;
23718;SDS011;43322;52.230;5.702;2023-09-19T08:36:23;11.18;;;2.90;;
23718;SDS011;43322;52.230;5.702;2023-09-19T08:38:51;12.68;;;3.40;;
23718;SDS011;43322;52.230;5.702;2023-09-19T08:41:30;19.20;;;4.07;;
23718;SDS011;43322;52.230;5.702;2023-09-19T08:43:58;13.63;;;2.75;;
23718;SDS011;43322;52.230;5.702;2023-09-19T08:46:26;20.20;;;3.13;;
23718;SDS011;43322;52.230;5.702;2023-09-19T08:48:57;17.67;;;3.28;;
23718;SDS011;43322;52.230;5.702;2023-09-19T12:39:10;7.53;;;1.75;;
23718;SDS011;43322;52.230;5.702;2023-09-19T12:41:39;5.93;;;1.50;;
23718;SDS011;43322;52.230;5.702;2023-09-19T12:44:06;8.15;;;1.80;;
23718;SDS011;43322;52.230;5.702;2023-09-19T12:46:38;2.92;;;1.35;;
23718;SDS011;43322;52.230;5.702;2023-09-19T12:49:20;7.30;;;1.90;;
23718;SDS011;43322;52.230;5.702;2023-09-19T12:51:51;5.75;;;1.30;;
23718;SDS011;43322;52.230;5.702;2023-09-19T12:54:25;2.83;;;1.50;;
23718;SDS011;43322;52.230;5.702;2023-09-19T12:57:06;4.43;;;1.60;;
23718;SDS011;43322;52.230;5.702;2023-09-19T12:59:33;7.45;;;1.60;;
23718;SDS011;43322;52.230;5.702;2023-09-19T13:02:04;8.52;;;1.60;;
23718;SDS011;43322;52.230;5.702;2023-09-19T13:04:32;10.57;;;1.90;;
23718;SDS011;43322;52.230;5.702;2023-09-19T13:07:05;5.00;;;1.77;;
23718;SDS011;43322;52.230;5.702;2023-09-19T13:09:35;5.10;;;1.80;;
23718;SDS011;43322;52.230;5.702;2023-09-19T13:12:04;5.10;;;1.60;;
23718;SDS011;43322;52.230;5.702;2023-09-19T13:14:32;6.72;;;1.73;;
23718;SDS011;43322;52.230;5.702;2023-09-19T13:17:06;3.40;;;1.40;;
23718;SDS011;43322;52.230;5.702;2023-09-19T13:19:41;3.83;;;1.20;;
23718;SDS011;43322;52.230;5.702;2023-09-19T13:25:05;4.63;;;1.45;;
23718;SDS011;43322;52.230;5.702;2023-09-19T13:27:37;6.90;;;1.73;;
23718;SDS011;43322;52.230;5.702;2023-09-19T13:30:04;5.47;;;1.38;;
23718;SDS011;43322;52.230;5.702;2023-09-19T13:32:31;11.73;;;1.52;;
23718;SDS011;43322;52.230;5.702;2023-09-19T13:34:59;2.47;;;1.33;;
23718;SDS011;43322;52.230;5.702;2023-09-19T13:37:25;3.75;;;1.40;;
23718;SDS011;43322;52.230;5.702;2023-09-19T13:39:54;6.55;;;1.60;;
23718;SDS011;43322;52.230;5.702;2023-09-19T13:46:23;4.63;;;1.55;;
23718;SDS011;43322;52.230;5.702;2023-09-19T13:48:51;7.43;;;1.20;;
23718;SDS011;43322;52.230;5.702;2023-09-19T13:51:19;4.93;;;1.50;;
23718;SDS011;43322;52.230;5.702;2023-09-19T13:56:26;3.95;;;1.52;;
23718;SDS011;43322;52.230;5.702;2023-09-19T13:58:55;2.78;;;1.40;;
23718;SDS011;43322;52.230;5.702;2023-09-19T14:01:22;6.72;;;1.52;;
23718;SDS011;43322;52.230;5.702;2023-09-19T14:03:49;2.38;;;1.20;;
23718;SDS011;43322;52.230;5.702;2023-09-19T14:06:16;3.28;;;1.33;;
23718;SDS011;43322;52.230;5.702;2023-09-19T14:08:43;4.93;;;1.30;;
23718;SDS011;43322;52.230;5.702;2023-09-19T14:11:13;5.25;;;1.58;;
23718;SDS011;43322;52.230;5.702;2023-09-19T14:13:42;3.33;;;1.70;;
23718;SDS011;43322;52.230;5.702;2023-09-19T14:16:12;3.67;;;1.10;;
23718;SDS011;43322;52.230;5.702;2023-09-19T14:18:38;5.45;;;1.27;;
23718;SDS011;43322;52.230;5.702;2023-09-19T14:21:07;2.85;;;1.15;;
23718;SDS011;43322;52.230;5.702;2023-09-19T14:23:36;4.88;;;1.27;;
23718;SDS011;43322;52.230;5.702;2023-09-19T14:26:02;3.63;;;1.10;;
23718;SDS011;43322;52.230;5.702;2023-09-19T14:28:30;2.42;;;1.10;;
23718;SDS011;43322;52.230;5.702;2023-09-19T14:31:03;5.68;;;1.30;;
23718;SDS011;43322;52.230;5.702;2023-09-19T14:33:30;4.28;;;1.33;;
23718;SDS011;43322;52.230;5.702;2023-09-19T14:35:57;9.65;;;1.63;;
23718;SDS011;43322;52.230;5.702;2023-09-19T14:38:24;6.38;;;1.30;;
23718;SDS011;43322;52.230;5.702;2023-09-19T14:40:58;2.45;;;1.50;;
23718;SDS011;43322;52.230;5.702;2023-09-19T14:43:25;6.95;;;1.70;;
23718;SDS011;43322;52.230;5.702;2023-09-19T14:45:54;6.90;;;2.75;;
23718;SDS011;43322;52.230;5.702;2023-09-19T14:48:23;8.45;;;1.38;;
23718;SDS011;43322;52.230;5.702;2023-09-19T14:50:50;5.10;;;1.63;;
23718;SDS011;43322;52.230;5.702;2023-09-19T14:53:17;3.78;;;1.75;;
23718;SDS011;43322;52.230;5.702;2023-09-19T14:55:43;3.10;;;1.42;;
23718;SDS011;43322;52.230;5.702;2023-09-19T14:58:12;4.97;;;1.73;;
23718;SDS011;43322;52.230;5.702;2023-09-19T15:00:39;9.23;;;1.80;;
23718;SDS011;43322;52.230;5.702;2023-09-19T15:03:06;8.30;;;1.77;;
23718;SDS011;43322;52.230;5.702;2023-09-19T15:05:34;4.00;;;1.45;;
23718;SDS011;43322;52.230;5.702;2023-09-19T15:08:00;4.65;;;1.40;;
23718;SDS011;43322;52.230;5.702;2023-09-19T15:10:27;1.70;;;1.33;;
23718;SDS011;43322;52.230;5.702;2023-09-19T15:12:54;6.32;;;1.77;;
23718;SDS011;43322;52.230;5.702;2023-09-19T15:15:21;3.70;;;1.98;;
23718;SDS011;43322;52.230;5.702;2023-09-19T15:17:48;3.42;;;1.55;;
23718;SDS011;43322;52.230;5.702;2023-09-19T15:20:14;3.83;;;1.58;;
23718;SDS011;43322;52.230;5.702;2023-09-19T15:22:44;3.67;;;2.13;;
23718;SDS011;43322;52.230;5.702;2023-09-19T15:25:11;4.60;;;1.73;;
23718;SDS011;43322;52.230;5.702;2023-09-19T15:27:37;4.53;;;1.88;;
23718;SDS011;43322;52.230;5.702;2023-09-19T15:30:07;5.10;;;2.05;;
23718;SDS011;43322;52.230;5.702;2023-09-19T15:32:34;5.22;;;2.03;;
23718;SDS011;43322;52.230;5.702;2023-09-19T15:35:01;2.85;;;2.00;;
23718;SDS011;43322;52.230;5.702;2023-09-19T15:37:27;6.57;;;2.10;;
23718;SDS011;43322;52.230;5.702;2023-09-19T15:39:55;3.70;;;2.15;;
23718;SDS011;43322;52.230;5.702;2023-09-19T15:42:22;8.07;;;2.30;;
23718;SDS011;43322;52.230;5.702;2023-09-19T15:44:49;7.70;;;2.40;;
23718;SDS011;43322;52.230;5.702;2023-09-19T15:47:16;5.88;;;2.75;;
23718;SDS011;43322;52.230;5.702;2023-09-19T15:49:44;5.20;;;2.30;;
23718;SDS011;43322;52.230;5.702;2023-09-19T15:52:11;4.93;;;2.00;;
23718;SDS011;43322;52.230;5.702;2023-09-19T15:54:38;3.85;;;2.13;;
23718;SDS011;43322;52.230;5.702;2023-09-19T15:57:10;5.35;;;2.08;;
23718;SDS011;43322;52.230;5.702;2023-09-19T15:59:37;3.92;;;1.90;;
23718;SDS011;43322;52.230;5.702;2023-09-19T16:02:04;6.32;;;2.40;;
23718;SDS011;43322;52.230;5.702;2023-09-19T16:04:31;5.50;;;2.10;;
23718;SDS011;43322;52.230;5.702;2023-09-19T16:06:59;8.45;;;2.55;;
23718;SDS011;43322;52.230;5.702;2023-09-19T16:09:26;7.82;;;2.13;;
23718;SDS011;43322;52.230;5.702;2023-09-19T16:11:53;6.95;;;1.85;;
23718;SDS011;43322;52.230;5.702;2023-09-19T16:14:21;5.70;;;2.53;;
23718;SDS011;43322;52.230;5.702;2023-09-19T16:16:47;5.20;;;2.10;;
23718;SDS011;43322;52.230;5.702;2023-09-19T16:19:15;9.30;;;2.53;;
23718;SDS011;43322;52.230;5.702;2023-09-19T16:21:41;5.53;;;2.28;;
23718;SDS011;43322;52.230;5.702;2023-09-19T16:24:09;5.05;;;1.85;;
23718;SDS011;43322;52.230;5.702;2023-09-19T16:26:36;4.30;;;1.98;;
23718;SDS011;43322;52.230;5.702;2023-09-19T16:29:03;3.40;;;1.80;;
23718;SDS011;43322;52.230;5.702;2023-09-19T16:31:31;5.63;;;2.28;;
23718;SDS011;43322;52.230;5.702;2023-09-19T16:33:58;4.45;;;2.25;;
23718;SDS011;43322;52.230;5.702;2023-09-19T16:36:25;3.78;;;2.15;;
23718;SDS011;43322;52.230;5.702;2023-09-19T16:38:52;5.97;;;2.10;;
23718;SDS011;43322;52.230;5.702;2023-09-19T16:41:18;5.80;;;2.25;;
23718;SDS011;43322;52.230;5.702;2023-09-19T16:43:46;4.07;;;1.83;;
23718;SDS011;43322;52.230;5.702;2023-09-19T16:46:13;5.07;;;1.67;;
23718;SDS011;43322;52.230;5.702;2023-09-19T16:48:43;8.20;;;2.35;;
23718;SDS011;43322;52.230;5.702;2023-09-19T16:51:12;3.67;;;1.67;;
23718;SDS011;43322;52.230;5.702;2023-09-19T16:53:40;5.78;;;2.40;;
23718;SDS011;43322;52.230;5.702;2023-09-19T16:56:08;6.75;;;2.22;;
23718;SDS011;43322;52.230;5.702;2023-09-19T16:58:36;7.15;;;2.30;;
23718;SDS011;43322;52.230;5.702;2023-09-19T17:01:03;4.03;;;2.05;;
23718;SDS011;43322;52.230;5.702;2023-09-19T17:03:34;11.60;;;2.30;;
23718;SDS011;43322;52.230;5.702;2023-09-19T17:06:02;8.77;;;2.15;;
23718;SDS011;43322;52.230;5.702;2023-09-19T17:08:29;8.27;;;2.13;;
23718;SDS011;43322;52.230;5.702;2023-09-19T17:11:00;4.25;;;2.03;;
23718;SDS011;43322;52.230;5.702;2023-09-19T17:13:27;4.72;;;2.20;;
23718;SDS011;43322;52.230;5.702;2023-09-19T17:16:01;6.43;;;2.17;;
23718;SDS011;43322;52.230;5.702;2023-09-19T17:18:29;4.93;;;1.77;;
23718;SDS011;43322;52.230;5.702;2023-09-19T17:20:57;3.35;;;2.33;;
23718;SDS011;43322;52.230;5.702;2023-09-19T17:23:26;4.38;;;2.20;;
23718;SDS011;43322;52.230;5.702;2023-09-19T17:25:58;3.25;;;2.10;;
23718;SDS011;43322;52.230;5.702;2023-09-19T17:28:25;4.35;;;2.28;;
23718;SDS011;43322;52.230;5.702;2023-09-19T17:30:52;6.20;;;2.33;;
23718;SDS011;43322;52.230;5.702;2023-09-19T17:33:20;3.85;;;2.20;;
23718;SDS011;43322;52.230;5.702;2023-09-19T17:35:47;4.78;;;2.25;;
23718;SDS011;43322;52.230;5.702;2023-09-19T17:38:14;11.32;;;3.63;;
23718;SDS011;43322;52.230;5.702;2023-09-19T17:40:42;6.40;;;2.17;;
23718;SDS011;43322;52.230;5.702;2023-09-19T17:43:09;4.45;;;2.47;;
23718;SDS011;43322;52.230;5.702;2023-09-19T17:45:35;3.75;;;2.05;;
23718;SDS011;43322;52.230;5.702;2023-09-19T17:48:02;4.78;;;2.55;;
23718;SDS011;43322;52.230;5.702;2023-09-19T17:50:31;4.38;;;2.22;;
23718;SDS011;43322;52.230;5.702;2023-09-19T17:52:58;6.05;;;2.35;;
23718;SDS011;43322;52.230;5.702;2023-09-19T17:55:26;5.75;;;2.40;;
23718;SDS011;43322;52.230;5.702;2023-09-19T17:57:54;3.45;;;2.28;;
23718;SDS011;43322;52.230;5.702;2023-09-19T18:00:23;3.80;;;2.10;;
23718;SDS011;43322;52.230;5.702;2023-09-19T18:02:49;6.30;;;2.47;;
23718;SDS011;43322;52.230;5.702;2023-09-19T18:05:16;10.02;;;2.97;;
23718;SDS011;43322;52.230;5.702;2023-09-19T18:07:43;7.82;;;2.72;;
23718;SDS011;43322;52.230;5.702;2023-09-19T18:10:11;5.47;;;2.70;;
23718;SDS011;43322;52.230;5.702;2023-09-19T18:12:38;5.10;;;2.30;;
23718;SDS011;43322;52.230;5.702;2023-09-19T18:15:08;2.90;;;2.33;;
23718;SDS011;43322;52.230;5.702;2023-09-19T18:17:35;6.40;;;2.60;;
23718;SDS011;43322;52.230;5.702;2023-09-19T18:20:01;5.85;;;2.70;;
23718;SDS011;43322;52.230;5.702;2023-09-19T18:22:29;9.55;;;3.13;;
23718;SDS011;43322;52.230;5.702;2023-09-19T18:24:58;9.05;;;2.95;;
23718;SDS011;43322;52.230;5.702;2023-09-19T18:27:25;17.15;;;2.92;;
23718;SDS011;43322;52.230;5.702;2023-09-19T18:29:52;7.55;;;2.90;;
23718;SDS011;43322;52.230;5.702;2023-09-19T18:32:20;9.27;;;3.15;;
23718;SDS011;43322;52.230;5.702;2023-09-19T18:34:47;6.78;;;3.13;;
23718;SDS011;43322;52.230;5.702;2023-09-19T18:37:13;8.18;;;2.83;;
23718;SDS011;43322;52.230;5.702;2023-09-19T18:39:40;6.15;;;2.70;;
23718;SDS011;43322;52.230;5.702;2023-09-19T18:42:07;6.95;;;2.85;;
23718;SDS011;43322;52.230;5.702;2023-09-19T18:44:34;6.05;;;2.80;;
23718;SDS011;43322;52.230;5.702;2023-09-19T18:47:02;7.80;;;3.38;;